TimeEST,TemperatureF,Dew PointF,Humidity,Sea Level PressureIn,VisibilityMPH,Wind Direction,Wind SpeedMPH,Gust SpeedMPH,PrecipitationIn,Events,Conditions,WindDirDegrees,DateUTC
12:51 AM,27.0,14.0,58,30.28,10.0,North,16.1,23.0,N/A,,Clear,360,2013-02-22 05:51:00
1:51 AM,27.0,15.1,61,30.27,10.0,North,16.1,-,N/A,,Clear,360,2013-02-22 06:51:00
2:51 AM,27.0,16.0,63,30.30,10.0,NNW,13.8,23.0,N/A,,Clear,340,2013-02-22 07:51:00
3:51 AM,26.1,16.0,66,30.32,10.0,North,13.8,-,N/A,,Partly Cloudy,360,2013-02-22 08:51:00
4:51 AM,27.0,17.1,66,30.34,10.0,North,10.4,-,N/A,,Scattered Clouds,10,2013-02-22 09:51:00
5:51 AM,27.0,17.1,66,30.36,10.0,North,9.2,-,N/A,,Mostly Cloudy,10,2013-02-22 10:51:00
6:51 AM,27.0,17.1,66,30.40,10.0,North,9.2,-,N/A,,Mostly Cloudy,10,2013-02-22 11:51:00
7:51 AM,28.0,18.0,66,30.40,10.0,NNE,9.2,-,N/A,,Mostly Cloudy,20,2013-02-22 12:51:00
8:51 AM,30.0,18.0,61,30.41,10.0,NNE,9.2,-,N/A,,Mostly Cloudy,30,2013-02-22 13:51:00
9:51 AM,30.9,18.0,59,30.40,10.0,NNE,8.1,-,N/A,,Mostly Cloudy,20,2013-02-22 14:51:00
10:51 AM,35.1,18.0,50,30.39,10.0,ENE,11.5,-,N/A,,Mostly Cloudy,70,2013-02-22 15:51:00
11:51 AM,36.0,19.0,50,30.39,10.0,NE,9.2,-,N/A,,Overcast,50,2013-02-22 16:51:00
12:51 PM,37.9,19.0,47,30.36,10.0,Calm,Calm,-,N/A,,Overcast,0,2013-02-22 17:51:00
1:51 PM,37.9,21.0,51,30.34,10.0,SE,6.9,-,N/A,,Mostly Cloudy,130,2013-02-22 18:51:00
2:51 PM,37.9,23.0,55,30.33,10.0,SE,10.4,-,N/A,,Mostly Cloudy,140,2013-02-22 19:51:00
3:51 PM,37.0,23.0,57,30.34,10.0,ESE,8.1,-,N/A,,Overcast,110,2013-02-22 20:51:00
4:51 PM,36.0,25.0,64,30.34,10.0,ESE,8.1,-,N/A,,Overcast,120,2013-02-22 21:51:00
5:51 PM,36.0,26.1,67,30.35,10.0,East,5.8,-,N/A,,Overcast,100,2013-02-22 22:51:00
6:27 PM,35.6,26.6,70,30.34,10.0,ESE,6.9,-,0.00,Snow,Light Snow,110,2013-02-22 23:27:00
6:51 PM,36.0,28.0,73,30.33,10.0,East,9.2,-,0.00,Snow,Light Snow,100,2013-02-22 23:51:00
7:51 PM,37.0,28.0,70,30.34,9.0,East,8.1,-,0.00,Snow,Light Snow,100,2013-02-23 00:51:00
8:51 PM,37.0,28.9,73,30.33,10.0,East,6.9,-,0.00,,Overcast,100,2013-02-23 01:51:00
9:51 PM,37.0,30.0,76,30.31,10.0,East,9.2,-,N/A,,Overcast,100,2013-02-23 02:51:00
10:51 PM,37.0,30.0,76,30.31,10.0,East,8.1,-,N/A,,Overcast,100,2013-02-23 03:51:00
11:51 PM,37.9,30.9,76,30.28,10.0,ESE,9.2,-,0.00,Rain,Light Rain,110,2013-02-23 04:51:00